sensor_id;sensor_type;location;lat;lon;timestamp;temperature;humidity
48752;DHT22;34544;48.836;9.174;2023-12-14T00:01:23;7.10;99.90
48752;DHT22;34544;48.836;9.174;2023-12-14T00:03:49;7.10;99.90
48752;DHT22;34544;48.836;9.174;2023-12-14T00:06:15;7.20;99.90
48752;DHT22;34544;48.836;9.174;2023-12-14T00:08:41;7.20;99.90
48752;DHT22;34544;48.836;9.174;2023-12-14T00:11:07;7.20;99.90
48752;DHT22;34544;48.836;9.174;2023-12-14T00:13:34;7.20;99.90
48752;DHT22;34544;48.836;9.174;2023-12-14T00:16:00;7.20;99.90
48752;DHT22;34544;48.836;9.174;2023-12-14T00:18:26;7.20;99.90
48752;DHT22;34544;48.836;9.174;2023-12-14T00:20:51;7.20;99.90
48752;DHT22;34544;48.836;9.174;2023-12-14T00:23:18;7.20;99.90
48752;DHT22;34544;48.836;9.174;2023-12-14T00:25:44;7.30;99.90
48752;DHT22;34544;48.836;9.174;2023-12-14T00:28:09;7.30;99.90
48752;DHT22;34544;48.836;9.174;2023-12-14T00:30:35;7.30;99.90
48752;DHT22;34544;48.836;9.174;2023-12-14T00:33:01;7.30;99.90
48752;DHT22;34544;48.836;9.174;2023-12-14T00:35:27;7.30;99.90
48752;DHT22;34544;48.836;9.174;2023-12-14T00:37:53;7.30;99.90
48752;DHT22;34544;48.836;9.174;2023-12-14T00:40:18;7.30;99.90
48752;DHT22;34544;48.836;9.174;2023-12-14T00:42:44;7.30;99.90
48752;DHT22;34544;48.836;9.174;2023-12-14T00:45:10;7.30;99.90
48752;DHT22;34544;48.836;9.174;2023-12-14T00:47:36;7.30;99.90
48752;DHT22;34544;48.836;9.174;2023-12-14T00:50:01;7.40;99.90
48752;DHT22;34544;48.836;9.174;2023-12-14T00:52:28;7.40;99.90
48752;DHT22;34544;48.836;9.174;2023-12-14T00:54:53;7.40;99.90
48752;DHT22;34544;48.836;9.174;2023-12-14T00:57:19;7.40;99.90
48752;DHT22;34544;48.836;9.174;2023-12-14T00:59:45;7.40;99.90
48752;DHT22;34544;48.836;9.174;2023-12-14T01:02:12;7.40;99.90
48752;DHT22;34544;48.836;9.174;2023-12-14T01:04:37;7.40;99.90
48752;DHT22;34544;48.836;9.174;2023-12-14T01:07:04;7.30;99.90
48752;DHT22;34544;48.836;9.174;2023-12-14T01:09:30;7.40;99.90
48752;DHT22;34544;48.836;9.174;2023-12-14T01:11:55;7.40;99.90
48752;DHT22;34544;48.836;9.174;2023-12-14T01:14:21;7.40;99.90
48752;DHT22;34544;48.836;9.174;2023-12-14T01:16:47;7.40;99.90
48752;DHT22;34544;48.836;9.174;2023-12-14T01:19:13;7.30;99.90
48752;DHT22;34544;48.836;9.174;2023-12-14T01:21:39;7.30;99.90
48752;DHT22;34544;48.836;9.174;2023-12-14T01:24:05;7.30;99.90
48752;DHT22;34544;48.836;9.174;2023-12-14T01:26:31;7.30;99.90
48752;DHT22;34544;48.836;9.174;2023-12-14T01:28:56;7.40;99.90
48752;DHT22;34544;48.836;9.174;2023-12-14T01:31:25;7.40;99.90
48752;DHT22;34544;48.836;9.174;2023-12-14T01:33:51;7.30;99.90
48752;DHT22;34544;48.836;9.174;2023-12-14T01:36:24;7.40;99.90
48752;DHT22;34544;48.836;9.174;2023-12-14T01:38:51;7.30;99.90
48752;DHT22;34544;48.836;9.174;2023-12-14T01:41:17;7.30;99.90
48752;DHT22;34544;48.836;9.174;2023-12-14T01:43:43;7.30;99.90
48752;DHT22;34544;48.836;9.174;2023-12-14T01:46:09;7.30;99.90
48752;DHT22;34544;48.836;9.174;2023-12-14T01:48:35;7.30;99.90
48752;DHT22;34544;48.836;9.174;2023-12-14T01:51:01;7.30;99.90
48752;DHT22;34544;48.836;9.174;2023-12-14T01:53:26;7.30;99.90
48752;DHT22;34544;48.836;9.174;2023-12-14T01:55:52;7.30;99.90
48752;DHT22;34544;48.836;9.174;2023-12-14T01:58:18;7.30;99.90
48752;DHT22;34544;48.836;9.174;2023-12-14T02:00:51;7.30;99.90
48752;DHT22;34544;48.836;9.174;2023-12-14T02:03:18;7.30;99.90
48752;DHT22;34544;48.836;9.174;2023-12-14T02:05:44;7.30;99.90
48752;DHT22;34544;48.836;9.174;2023-12-14T02:08:09;7.30;99.90
48752;DHT22;34544;48.836;9.174;2023-12-14T02:10:35;7.20;99.90
48752;DHT22;34544;48.836;9.174;2023-12-14T02:13:02;7.20;99.90
48752;DHT22;34544;48.836;9.174;2023-12-14T02:15:28;7.20;99.90
48752;DHT22;34544;48.836;9.174;2023-12-14T02:17:53;7.20;99.90
48752;DHT22;34544;48.836;9.174;2023-12-14T02:20:19;7.20;99.90
48752;DHT22;34544;48.836;9.174;2023-12-14T02:22:49;7.20;99.90
48752;DHT22;34544;48.836;9.174;2023-12-14T02:25:16;7.20;99.90
48752;DHT22;34544;48.836;9.174;2023-12-14T02:27:41;7.20;99.90
48752;DHT22;34544;48.836;9.174;2023-12-14T02:30:08;7.20;99.90
48752;DHT22;34544;48.836;9.174;2023-12-14T02:32:34;7.20;99.90
48752;DHT22;34544;48.836;9.174;2023-12-14T02:34:59;7.20;99.90
48752;DHT22;34544;48.836;9.174;2023-12-14T02:37:25;7.20;99.90
48752;DHT22;34544;48.836;9.174;2023-12-14T02:39:51;7.20;99.90
48752;DHT22;34544;48.836;9.174;2023-12-14T02:42:17;7.20;99.90
48752;DHT22;34544;48.836;9.174;2023-12-14T02:44:42;7.20;99.90
48752;DHT22;34544;48.836;9.174;2023-12-14T02:47:08;7.20;99.90
48752;DHT22;34544;48.836;9.174;2023-12-14T02:49:34;7.10;99.90
48752;DHT22;34544;48.836;9.174;2023-12-14T02:51:59;7.10;99.90
48752;DHT22;34544;48.836;9.174;2023-12-14T02:54:25;7.10;99.90
48752;DHT22;34544;48.836;9.174;2023-12-14T02:56:51;7.10;99.90
48752;DHT22;34544;48.836;9.174;2023-12-14T02:59:16;7.10;99.90
48752;DHT22;34544;48.836;9.174;2023-12-14T03:01:42;7.10;99.90
48752;DHT22;34544;48.836;9.174;2023-12-14T03:04:08;7.10;99.90
48752;DHT22;34544;48.836;9.174;2023-12-14T03:06:34;7.20;99.90
48752;DHT22;34544;48.836;9.174;2023-12-14T03:09:00;7.20;99.90
48752;DHT22;34544;48.836;9.174;2023-12-14T03:11:26;7.20;99.90
48752;DHT22;34544;48.836;9.174;2023-12-14T03:13:52;7.20;99.90
48752;DHT22;34544;48.836;9.174;2023-12-14T03:16:19;7.20;99.90
48752;DHT22;34544;48.836;9.174;2023-12-14T03:18:45;7.30;99.90
48752;DHT22;34544;48.836;9.174;2023-12-14T03:21:11;7.30;99.90
48752;DHT22;34544;48.836;9.174;2023-12-14T03:23:36;7.20;99.90
48752;DHT22;34544;48.836;9.174;2023-12-14T03:26:02;7.30;99.90
48752;DHT22;34544;48.836;9.174;2023-12-14T03:28:28;7.30;99.90
48752;DHT22;34544;48.836;9.174;2023-12-14T03:30:54;7.30;99.90
48752;DHT22;34544;48.836;9.174;2023-12-14T03:33:20;7.30;99.90
48752;DHT22;34544;48.836;9.174;2023-12-14T03:35:47;7.30;99.90
48752;DHT22;34544;48.836;9.174;2023-12-14T03:38:13;7.30;99.90
48752;DHT22;34544;48.836;9.174;2023-12-14T03:40:39;7.30;99.90
48752;DHT22;34544;48.836;9.174;2023-12-14T03:43:05;7.30;99.90
48752;DHT22;34544;48.836;9.174;2023-12-14T03:45:31;7.30;99.90
48752;DHT22;34544;48.836;9.174;2023-12-14T03:47:56;7.30;99.90
48752;DHT22;34544;48.836;9.174;2023-12-14T03:50:23;7.30;99.90
48752;DHT22;34544;48.836;9.174;2023-12-14T03:52:49;7.30;99.90
48752;DHT22;34544;48.836;9.174;2023-12-14T03:55:15;7.30;99.90
48752;DHT22;34544;48.836;9.174;2023-12-14T03:57:41;7.30;99.90
48752;DHT22;34544;48.836;9.174;2023-12-14T04:00:10;7.30;99.90
48752;DHT22;34544;48.836;9.174;2023-12-14T04:02:39;7.30;99.90
48752;DHT22;34544;48.836;9.174;2023-12-14T04:05:06;7.30;99.90
48752;DHT22;34544;48.836;9.174;2023-12-14T04:07:32;7.30;99.90
48752;DHT22;34544;48.836;9.174;2023-12-14T04:09:57;7.30;99.90
48752;DHT22;34544;48.836;9.174;2023-12-14T04:12:23;7.30;99.90
48752;DHT22;34544;48.836;9.174;2023-12-14T04:14:49;7.20;99.90
48752;DHT22;34544;48.836;9.174;2023-12-14T04:17:15;7.30;99.90
48752;DHT22;34544;48.836;9.174;2023-12-14T04:19:41;7.20;99.90
48752;DHT22;34544;48.836;9.174;2023-12-14T04:22:07;7.20;99.90
48752;DHT22;34544;48.836;9.174;2023-12-14T04:24:33;7.20;99.90
48752;DHT22;34544;48.836;9.174;2023-12-14T04:26:59;7.20;99.90
48752;DHT22;34544;48.836;9.174;2023-12-14T04:29:25;7.20;99.90
48752;DHT22;34544;48.836;9.174;2023-12-14T04:31:51;7.20;99.90
48752;DHT22;34544;48.836;9.174;2023-12-14T04:34:18;7.20;99.90
48752;DHT22;34544;48.836;9.174;2023-12-14T04:36:48;7.20;99.90
48752;DHT22;34544;48.836;9.174;2023-12-14T04:39:13;7.20;99.90
48752;DHT22;34544;48.836;9.174;2023-12-14T04:41:40;7.20;99.90
48752;DHT22;34544;48.836;9.174;2023-12-14T04:44:05;7.20;99.90
48752;DHT22;34544;48.836;9.174;2023-12-14T04:46:31;7.10;99.90
48752;DHT22;34544;48.836;9.174;2023-12-14T04:48:56;7.20;99.90
48752;DHT22;34544;48.836;9.174;2023-12-14T04:51:22;7.20;99.90
48752;DHT22;34544;48.836;9.174;2023-12-14T04:53:48;7.20;99.90
48752;DHT22;34544;48.836;9.174;2023-12-14T04:56:13;7.20;99.90
48752;DHT22;34544;48.836;9.174;2023-12-14T04:58:40;7.20;99.90
48752;DHT22;34544;48.836;9.174;2023-12-14T05:01:06;7.20;99.90
48752;DHT22;34544;48.836;9.174;2023-12-14T05:03:33;7.20;99.90
48752;DHT22;34544;48.836;9.174;2023-12-14T05:05:59;7.20;99.90
48752;DHT22;34544;48.836;9.174;2023-12-14T05:08:24;7.20;99.90
48752;DHT22;34544;48.836;9.174;2023-12-14T05:10:50;7.20;99.90
48752;DHT22;34544;48.836;9.174;2023-12-14T05:13:16;7.30;99.90
48752;DHT22;34544;48.836;9.174;2023-12-14T05:15:42;7.30;99.90
48752;DHT22;34544;48.836;9.174;2023-12-14T05:18:08;7.30;99.90
48752;DHT22;34544;48.836;9.174;2023-12-14T05:20:34;7.30;99.90
48752;DHT22;34544;48.836;9.174;2023-12-14T05:23:01;7.30;99.90
48752;DHT22;34544;48.836;9.174;2023-12-14T05:25:27;7.30;99.90
48752;DHT22;34544;48.836;9.174;2023-12-14T05:27:53;7.40;99.90
48752;DHT22;34544;48.836;9.174;2023-12-14T05:30:19;7.40;99.90
48752;DHT22;34544;48.836;9.174;2023-12-14T05:32:44;7.40;99.90
48752;DHT22;34544;48.836;9.174;2023-12-14T05:35:10;7.40;99.90
48752;DHT22;34544;48.836;9.174;2023-12-14T05:37:39;7.40;99.90
48752;DHT22;34544;48.836;9.174;2023-12-14T05:40:05;7.40;99.90
48752;DHT22;34544;48.836;9.174;2023-12-14T05:42:31;7.50;99.90
48752;DHT22;34544;48.836;9.174;2023-12-14T05:44:56;7.40;99.90
48752;DHT22;34544;48.836;9.174;2023-12-14T05:47:22;7.50;99.90
48752;DHT22;34544;48.836;9.174;2023-12-14T05:49:48;7.50;99.90
48752;DHT22;34544;48.836;9.174;2023-12-14T05:52:14;7.50;99.90
48752;DHT22;34544;48.836;9.174;2023-12-14T05:54:39;7.50;99.90
48752;DHT22;34544;48.836;9.174;2023-12-14T05:57:05;7.50;99.90
48752;DHT22;34544;48.836;9.174;2023-12-14T05:59:31;7.50;99.90
48752;DHT22;34544;48.836;9.174;2023-12-14T06:01:58;7.50;99.90
48752;DHT22;34544;48.836;9.174;2023-12-14T06:04:24;7.50;99.90
48752;DHT22;34544;48.836;9.174;2023-12-14T06:06:50;7.50;99.90
48752;DHT22;34544;48.836;9.174;2023-12-14T06:09:15;7.50;99.90
48752;DHT22;34544;48.836;9.174;2023-12-14T06:11:43;7.50;99.90
48752;DHT22;34544;48.836;9.174;2023-12-14T06:14:09;7.50;99.90
48752;DHT22;34544;48.836;9.174;2023-12-14T06:16:35;7.40;99.90
48752;DHT22;34544;48.836;9.174;2023-12-14T06:19:00;7.40;99.90
48752;DHT22;34544;48.836;9.174;2023-12-14T06:21:26;7.40;99.90
48752;DHT22;34544;48.836;9.174;2023-12-14T06:23:55;7.40;99.90
48752;DHT22;34544;48.836;9.174;2023-12-14T06:26:22;7.30;99.90
48752;DHT22;34544;48.836;9.174;2023-12-14T06:28:48;7.30;99.90
48752;DHT22;34544;48.836;9.174;2023-12-14T06:31:14;7.40;99.90
48752;DHT22;34544;48.836;9.174;2023-12-14T06:33:40;7.40;99.90
48752;DHT22;34544;48.836;9.174;2023-12-14T06:36:07;7.30;99.90
48752;DHT22;34544;48.836;9.174;2023-12-14T06:38:33;7.30;99.90
48752;DHT22;34544;48.836;9.174;2023-12-14T06:41:00;7.40;99.90
48752;DHT22;34544;48.836;9.174;2023-12-14T06:43:27;7.40;99.90
48752;DHT22;34544;48.836;9.174;2023-12-14T06:45:53;7.40;99.90
48752;DHT22;34544;48.836;9.174;2023-12-14T06:48:20;7.40;99.90
48752;DHT22;34544;48.836;9.174;2023-12-14T06:50:46;7.40;99.90
48752;DHT22;34544;48.836;9.174;2023-12-14T06:53:11;7.50;99.90
48752;DHT22;34544;48.836;9.174;2023-12-14T06:55:37;7.50;99.90
48752;DHT22;34544;48.836;9.174;2023-12-14T06:58:03;7.50;99.90
48752;DHT22;34544;48.836;9.174;2023-12-14T07:00:29;7.40;99.90
48752;DHT22;34544;48.836;9.174;2023-12-14T07:02:55;7.50;99.90
48752;DHT22;34544;48.836;9.174;2023-12-14T07:05:21;7.50;99.90
48752;DHT22;34544;48.836;9.174;2023-12-14T07:07:46;7.50;99.90
48752;DHT22;34544;48.836;9.174;2023-12-14T07:10:12;7.50;99.90
48752;DHT22;34544;48.836;9.174;2023-12-14T07:12:38;7.50;99.90
48752;DHT22;34544;48.836;9.174;2023-12-14T07:15:04;7.60;99.90
48752;DHT22;34544;48.836;9.174;2023-12-14T07:17:31;7.60;99.90
48752;DHT22;34544;48.836;9.174;2023-12-14T07:19:56;7.70;99.90
48752;DHT22;34544;48.836;9.174;2023-12-14T07:22:22;7.70;99.90
48752;DHT22;34544;48.836;9.174;2023-12-14T07:24:47;7.80;99.90
48752;DHT22;34544;48.836;9.174;2023-12-14T07:27:13;7.80;99.90
48752;DHT22;34544;48.836;9.174;2023-12-14T07:29:39;7.80;99.90
48752;DHT22;34544;48.836;9.174;2023-12-14T07:32:05;7.80;99.90
48752;DHT22;34544;48.836;9.174;2023-12-14T07:34:31;7.90;99.90
48752;DHT22;34544;48.836;9.174;2023-12-14T07:36:57;7.90;99.90
48752;DHT22;34544;48.836;9.174;2023-12-14T07:39:22;7.90;99.90
48752;DHT22;34544;48.836;9.174;2023-12-14T07:41:48;7.90;99.90
48752;DHT22;34544;48.836;9.174;2023-12-14T07:44:14;7.90;99.90
48752;DHT22;34544;48.836;9.174;2023-12-14T07:46:39;7.80;99.90
48752;DHT22;34544;48.836;9.174;2023-12-14T07:49:07;7.90;99.90
48752;DHT22;34544;48.836;9.174;2023-12-14T07:51:33;7.90;99.90
48752;DHT22;34544;48.836;9.174;2023-12-14T07:53:59;7.80;99.90
48752;DHT22;34544;48.836;9.174;2023-12-14T07:56:25;7.90;99.90
48752;DHT22;34544;48.836;9.174;2023-12-14T07:58:53;7.90;99.90
48752;DHT22;34544;48.836;9.174;2023-12-14T08:01:19;8.00;99.90
48752;DHT22;34544;48.836;9.174;2023-12-14T08:03:46;8.00;99.90
48752;DHT22;34544;48.836;9.174;2023-12-14T08:06:12;8.10;99.90
48752;DHT22;34544;48.836;9.174;2023-12-14T08:08:37;8.10;99.90
48752;DHT22;34544;48.836;9.174;2023-12-14T08:11:04;8.20;99.90
48752;DHT22;34544;48.836;9.174;2023-12-14T08:13:30;8.30;99.90
48752;DHT22;34544;48.836;9.174;2023-12-14T08:15:56;8.30;99.90
48752;DHT22;34544;48.836;9.174;2023-12-14T08:18:22;8.30;99.90
48752;DHT22;34544;48.836;9.174;2023-12-14T08:20:47;8.40;99.90
48752;DHT22;34544;48.836;9.174;2023-12-14T08:23:13;8.50;99.90
48752;DHT22;34544;48.836;9.174;2023-12-14T08:25:40;8.50;99.90
48752;DHT22;34544;48.836;9.174;2023-12-14T08:28:06;8.50;99.90
48752;DHT22;34544;48.836;9.174;2023-12-14T08:30:33;8.60;99.90
48752;DHT22;34544;48.836;9.174;2023-12-14T08:33:00;8.50;99.90
48752;DHT22;34544;48.836;9.174;2023-12-14T08:35:26;8.50;99.90
48752;DHT22;34544;48.836;9.174;2023-12-14T08:37:53;8.50;99.90
48752;DHT22;34544;48.836;9.174;2023-12-14T08:40:19;8.50;99.90
48752;DHT22;34544;48.836;9.174;2023-12-14T08:42:47;8.50;99.90
48752;DHT22;34544;48.836;9.174;2023-12-14T08:45:14;8.50;99.90
48752;DHT22;34544;48.836;9.174;2023-12-14T08:47:40;8.50;99.90
48752;DHT22;34544;48.836;9.174;2023-12-14T08:50:07;8.60;99.90
48752;DHT22;34544;48.836;9.174;2023-12-14T08:52:34;8.60;99.90
48752;DHT22;34544;48.836;9.174;2023-12-14T08:55:01;8.60;99.90
48752;DHT22;34544;48.836;9.174;2023-12-14T08:57:28;8.60;99.90
48752;DHT22;34544;48.836;9.174;2023-12-14T08:59:55;8.60;99.90
48752;DHT22;34544;48.836;9.174;2023-12-14T09:02:21;8.60;99.90
48752;DHT22;34544;48.836;9.174;2023-12-14T09:04:48;8.70;99.90
48752;DHT22;34544;48.836;9.174;2023-12-14T09:07:15;8.80;99.90
48752;DHT22;34544;48.836;9.174;2023-12-14T09:09:41;8.90;99.90
48752;DHT22;34544;48.836;9.174;2023-12-14T09:12:08;9.00;99.90
48752;DHT22;34544;48.836;9.174;2023-12-14T09:14:35;9.00;99.90
48752;DHT22;34544;48.836;9.174;2023-12-14T09:17:02;9.10;99.90
48752;DHT22;34544;48.836;9.174;2023-12-14T09:19:30;9.10;99.90
48752;DHT22;34544;48.836;9.174;2023-12-14T09:21:57;9.10;99.90
48752;DHT22;34544;48.836;9.174;2023-12-14T09:24:25;9.20;99.90
48752;DHT22;34544;48.836;9.174;2023-12-14T09:26:52;9.20;99.90
48752;DHT22;34544;48.836;9.174;2023-12-14T09:29:18;9.20;99.90
48752;DHT22;34544;48.836;9.174;2023-12-14T09:31:46;9.20;99.90
48752;DHT22;34544;48.836;9.174;2023-12-14T09:34:13;9.20;99.90
48752;DHT22;34544;48.836;9.174;2023-12-14T09:36:40;9.30;99.90
48752;DHT22;34544;48.836;9.174;2023-12-14T09:39:07;9.40;99.90
48752;DHT22;34544;48.836;9.174;2023-12-14T09:41:39;9.40;99.90
48752;DHT22;34544;48.836;9.174;2023-12-14T09:44:06;9.40;99.90
48752;DHT22;34544;48.836;9.174;2023-12-14T09:46:37;9.40;99.90
48752;DHT22;34544;48.836;9.174;2023-12-14T09:49:04;9.40;99.90
48752;DHT22;34544;48.836;9.174;2023-12-14T09:51:31;9.50;99.90
48752;DHT22;34544;48.836;9.174;2023-12-14T09:53:57;9.50;99.90
48752;DHT22;34544;48.836;9.174;2023-12-14T09:56:25;9.50;99.90
48752;DHT22;34544;48.836;9.174;2023-12-14T09:58:52;9.70;99.90
48752;DHT22;34544;48.836;9.174;2023-12-14T10:01:26;10.20;99.90
48752;DHT22;34544;48.836;9.174;2023-12-14T10:04:11;10.60;99.90
48752;DHT22;34544;48.836;9.174;2023-12-14T10:06:42;10.80;99.90
48752;DHT22;34544;48.836;9.174;2023-12-14T10:09:08;10.60;99.90
48752;DHT22;34544;48.836;9.174;2023-12-14T10:11:39;10.60;99.90
48752;DHT22;34544;48.836;9.174;2023-12-14T10:16:49;10.60;99.90
48752;DHT22;34544;48.836;9.174;2023-12-14T10:19:19;10.70;99.90
48752;DHT22;34544;48.836;9.174;2023-12-14T10:21:47;10.80;99.90
48752;DHT22;34544;48.836;9.174;2023-12-14T10:24:14;10.80;99.90
48752;DHT22;34544;48.836;9.174;2023-12-14T10:26:44;10.80;99.90
48752;DHT22;34544;48.836;9.174;2023-12-14T10:29:11;10.60;99.90
48752;DHT22;34544;48.836;9.174;2023-12-14T10:31:40;10.60;99.90
48752;DHT22;34544;48.836;9.174;2023-12-14T10:34:08;10.40;99.90
48752;DHT22;34544;48.836;9.174;2023-12-14T10:36:34;10.30;99.90
48752;DHT22;34544;48.836;9.174;2023-12-14T10:39:01;10.20;99.90
48752;DHT22;34544;48.836;9.174;2023-12-14T10:41:31;10.20;99.90
48752;DHT22;34544;48.836;9.174;2023-12-14T10:44:00;10.20;99.90
48752;DHT22;34544;48.836;9.174;2023-12-14T10:46:28;10.20;99.90
48752;DHT22;34544;48.836;9.174;2023-12-14T10:48:54;10.10;99.90
48752;DHT22;34544;48.836;9.174;2023-12-14T10:51:22;10.20;99.90
48752;DHT22;34544;48.836;9.174;2023-12-14T10:53:50;10.20;99.90
48752;DHT22;34544;48.836;9.174;2023-12-14T10:56:18;10.10;99.90
48752;DHT22;34544;48.836;9.174;2023-12-14T11:01:17;10.20;99.90
48752;DHT22;34544;48.836;9.174;2023-12-14T11:03:44;10.10;99.90
48752;DHT22;34544;48.836;9.174;2023-12-14T11:06:27;10.10;99.90
48752;DHT22;34544;48.836;9.174;2023-12-14T11:09:02;10.10;99.90
48752;DHT22;34544;48.836;9.174;2023-12-14T11:14:23;10.00;99.90
48752;DHT22;34544;48.836;9.174;2023-12-14T11:16:50;9.90;99.90
48752;DHT22;34544;48.836;9.174;2023-12-14T11:22:11;9.90;99.90
48752;DHT22;34544;48.836;9.174;2023-12-14T11:24:41;9.90;99.90
48752;DHT22;34544;48.836;9.174;2023-12-14T11:27:09;10.00;99.90
48752;DHT22;34544;48.836;9.174;2023-12-14T11:29:38;10.10;99.90
48752;DHT22;34544;48.836;9.174;2023-12-14T11:32:08;10.30;99.90
48752;DHT22;34544;48.836;9.174;2023-12-14T11:34:33;10.30;99.90
48752;DHT22;34544;48.836;9.174;2023-12-14T11:36:59;10.40;99.90
48752;DHT22;34544;48.836;9.174;2023-12-14T11:39:25;10.60;99.90
48752;DHT22;34544;48.836;9.174;2023-12-14T11:42:02;10.60;99.90
48752;DHT22;34544;48.836;9.174;2023-12-14T11:44:29;10.60;99.90
48752;DHT22;34544;48.836;9.174;2023-12-14T11:46:56;10.50;99.90
48752;DHT22;34544;48.836;9.174;2023-12-14T11:49:24;10.60;99.90
48752;DHT22;34544;48.836;9.174;2023-12-14T11:51:55;10.50;99.90
48752;DHT22;34544;48.836;9.174;2023-12-14T11:54:21;10.60;99.90
48752;DHT22;34544;48.836;9.174;2023-12-14T11:56:48;10.80;99.90
48752;DHT22;34544;48.836;9.174;2023-12-14T11:59:18;11.30;99.90
48752;DHT22;34544;48.836;9.174;2023-12-14T12:01:57;11.60;99.90
48752;DHT22;34544;48.836;9.174;2023-12-14T12:04:24;11.60;99.90
48752;DHT22;34544;48.836;9.174;2023-12-14T12:07:07;11.60;99.90
48752;DHT22;34544;48.836;9.174;2023-12-14T12:09:43;11.60;99.90
48752;DHT22;34544;48.836;9.174;2023-12-14T12:12:10;11.40;99.90
48752;DHT22;34544;48.836;9.174;2023-12-14T12:14:36;11.30;99.90
48752;DHT22;34544;48.836;9.174;2023-12-14T12:17:04;11.00;99.90
48752;DHT22;34544;48.836;9.174;2023-12-14T12:19:34;10.80;99.90
48752;DHT22;34544;48.836;9.174;2023-12-14T12:22:01;10.60;99.90
48752;DHT22;34544;48.836;9.174;2023-12-14T12:24:27;10.50;99.90
48752;DHT22;34544;48.836;9.174;2023-12-14T12:26:53;10.40;99.90
48752;DHT22;34544;48.836;9.174;2023-12-14T12:29:19;10.40;99.90
48752;DHT22;34544;48.836;9.174;2023-12-14T12:31:44;10.30;99.90
48752;DHT22;34544;48.836;9.174;2023-12-14T12:34:11;10.30;99.90
48752;DHT22;34544;48.836;9.174;2023-12-14T12:36:37;10.30;99.90
48752;DHT22;34544;48.836;9.174;2023-12-14T12:39:03;10.20;99.90
48752;DHT22;34544;48.836;9.174;2023-12-14T12:41:32;10.20;99.90
48752;DHT22;34544;48.836;9.174;2023-12-14T12:43:58;10.10;99.90
48752;DHT22;34544;48.836;9.174;2023-12-14T12:46:24;10.20;99.90
48752;DHT22;34544;48.836;9.174;2023-12-14T12:48:50;10.20;99.90
48752;DHT22;34544;48.836;9.174;2023-12-14T12:51:17;10.20;99.90
48752;DHT22;34544;48.836;9.174;2023-12-14T12:53:42;10.20;99.90
48752;DHT22;34544;48.836;9.174;2023-12-14T12:56:08;10.20;99.90
48752;DHT22;34544;48.836;9.174;2023-12-14T12:58:34;10.20;99.90
48752;DHT22;34544;48.836;9.174;2023-12-14T13:01:00;10.20;99.90
48752;DHT22;34544;48.836;9.174;2023-12-14T13:03:25;10.00;99.90
48752;DHT22;34544;48.836;9.174;2023-12-14T13:05:51;9.90;99.90
48752;DHT22;34544;48.836;9.174;2023-12-14T13:08:17;9.80;99.90
48752;DHT22;34544;48.836;9.174;2023-12-14T13:10:43;9.80;99.90
48752;DHT22;34544;48.836;9.174;2023-12-14T13:13:09;9.60;99.90
48752;DHT22;34544;48.836;9.174;2023-12-14T13:15:37;9.50;99.90
48752;DHT22;34544;48.836;9.174;2023-12-14T13:18:04;9.30;99.90
48752;DHT22;34544;48.836;9.174;2023-12-14T13:20:30;9.20;99.90
48752;DHT22;34544;48.836;9.174;2023-12-14T13:22:56;9.10;99.90
48752;DHT22;34544;48.836;9.174;2023-12-14T13:25:21;9.00;99.90
48752;DHT22;34544;48.836;9.174;2023-12-14T13:27:51;9.00;99.90
48752;DHT22;34544;48.836;9.174;2023-12-14T13:30:17;9.00;99.90
48752;DHT22;34544;48.836;9.174;2023-12-14T13:32:43;8.90;99.90
48752;DHT22;34544;48.836;9.174;2023-12-14T13:35:09;8.80;99.90
48752;DHT22;34544;48.836;9.174;2023-12-14T13:37:34;8.80;99.90
48752;DHT22;34544;48.836;9.174;2023-12-14T13:40:00;8.80;99.90
48752;DHT22;34544;48.836;9.174;2023-12-14T13:42:26;8.70;99.90
48752;DHT22;34544;48.836;9.174;2023-12-14T13:44:52;8.70;99.90
48752;DHT22;34544;48.836;9.174;2023-12-14T13:47:17;8.70;99.90
48752;DHT22;34544;48.836;9.174;2023-12-14T13:49:43;8.70;99.90
48752;DHT22;34544;48.836;9.174;2023-12-14T13:52:09;8.70;99.90
48752;DHT22;34544;48.836;9.174;2023-12-14T13:54:35;8.70;99.90
48752;DHT22;34544;48.836;9.174;2023-12-14T13:57:02;8.70;99.90
48752;DHT22;34544;48.836;9.174;2023-12-14T13:59:28;8.70;99.90
48752;DHT22;34544;48.836;9.174;2023-12-14T14:01:54;8.60;99.90
48752;DHT22;34544;48.836;9.174;2023-12-14T14:04:19;8.60;99.90
48752;DHT22;34544;48.836;9.174;2023-12-14T14:06:45;8.60;99.90
48752;DHT22;34544;48.836;9.174;2023-12-14T14:09:11;8.60;99.90
48752;DHT22;34544;48.836;9.174;2023-12-14T14:11:38;8.60;99.90
48752;DHT22;34544;48.836;9.174;2023-12-14T14:14:07;8.50;99.90
48752;DHT22;34544;48.836;9.174;2023-12-14T14:16:32;8.50;99.90
48752;DHT22;34544;48.836;9.174;2023-12-14T14:18:58;8.50;99.90
48752;DHT22;34544;48.836;9.174;2023-12-14T14:21:24;8.50;99.90
48752;DHT22;34544;48.836;9.174;2023-12-14T14:23:50;8.50;99.90
48752;DHT22;34544;48.836;9.174;2023-12-14T14:26:16;8.50;99.90
48752;DHT22;34544;48.836;9.174;2023-12-14T14:28:41;8.60;99.90
48752;DHT22;34544;48.836;9.174;2023-12-14T14:31:07;8.50;99.90
48752;DHT22;34544;48.836;9.174;2023-12-14T14:33:33;8.50;99.90
48752;DHT22;34544;48.836;9.174;2023-12-14T14:35:59;8.50;99.90
48752;DHT22;34544;48.836;9.174;2023-12-14T14:38:24;8.50;99.90
48752;DHT22;34544;48.836;9.174;2023-12-14T14:40:50;8.50;99.90
48752;DHT22;34544;48.836;9.174;2023-12-14T14:43:15;8.50;99.90
48752;DHT22;34544;48.836;9.174;2023-12-14T14:45:41;8.50;99.90
48752;DHT22;34544;48.836;9.174;2023-12-14T14:48:07;8.50;99.90
48752;DHT22;34544;48.836;9.174;2023-12-14T14:50:34;8.50;99.90
48752;DHT22;34544;48.836;9.174;2023-12-14T14:53:00;8.50;99.90
48752;DHT22;34544;48.836;9.174;2023-12-14T14:55:26;8.40;99.90
48752;DHT22;34544;48.836;9.174;2023-12-14T14:57:52;8.50;99.90
48752;DHT22;34544;48.836;9.174;2023-12-14T15:00:18;8.40;99.90
48752;DHT22;34544;48.836;9.174;2023-12-14T15:02:43;8.40;99.90
48752;DHT22;34544;48.836;9.174;2023-12-14T15:05:09;8.40;99.90
48752;DHT22;34544;48.836;9.174;2023-12-14T15:07:35;8.30;99.90
48752;DHT22;34544;48.836;9.174;2023-12-14T15:10:00;8.30;99.90
48752;DHT22;34544;48.836;9.174;2023-12-14T15:12:26;8.40;99.90
48752;DHT22;34544;48.836;9.174;2023-12-14T15:14:52;8.30;99.90
48752;DHT22;34544;48.836;9.174;2023-12-14T15:17:18;8.30;99.90
48752;DHT22;34544;48.836;9.174;2023-12-14T15:19:45;8.30;99.90
48752;DHT22;34544;48.836;9.174;2023-12-14T15:22:12;8.20;99.90
48752;DHT22;34544;48.836;9.174;2023-12-14T15:24:39;8.10;99.90
48752;DHT22;34544;48.836;9.174;2023-12-14T15:27:05;8.10;99.90
48752;DHT22;34544;48.836;9.174;2023-12-14T15:29:30;8.10;99.90
48752;DHT22;34544;48.836;9.174;2023-12-14T15:31:56;8.10;99.90
48752;DHT22;34544;48.836;9.174;2023-12-14T15:34:22;8.10;99.90
48752;DHT22;34544;48.836;9.174;2023-12-14T15:36:47;8.10;99.90
48752;DHT22;34544;48.836;9.174;2023-12-14T15:39:13;8.10;99.90
48752;DHT22;34544;48.836;9.174;2023-12-14T15:41:39;8.10;99.90
48752;DHT22;34544;48.836;9.174;2023-12-14T15:44:04;8.10;99.90
48752;DHT22;34544;48.836;9.174;2023-12-14T15:46:30;8.10;99.90
48752;DHT22;34544;48.836;9.174;2023-12-14T15:48:56;8.10;99.90